This is the latest recevied weather packets stored in our database for station/object OE6CBX-1. If no packets are shown the sender has not sent any weather packets the latest 1 day(s).
| Time | Temp. | Humidity | Pressure | Rain* | Wind** | Luminosity | Snow |
|---|---|---|---|---|---|---|---|
| 1778113986 | 15.56° C | 61% | 973 hPa | - | - | - | - |
| 1778113086 | 15.56° C | 61% | 972.9 hPa | - | - | - | - |
| 1778105886 | 16.11° C | 59% | 972.7 hPa | - | - | - | - |
| 1778104986 | 16.11° C | 59% | 972.7 hPa | - | - | - | - |
| 1778104086 | 15.56° C | 59% | 972.7 hPa | - | - | - | - |
| 1778093285 | 16.67° C | 56% | 971.5 hPa | - | - | - | - |
| 1778092385 | 17.22° C | 55% | 971.2 hPa | - | - | - | - |
| 1778091485 | 17.22° C | 55% | 970.8 hPa | - | - | - | - |
| 1778090585 | 17.22° C | 55% | 970.9 hPa | - | - | - | - |
| 1778089685 | 17.22° C | 54% | 970.9 hPa | - | - | - | - |
| 1778088785 | 17.78° C | 54% | 970.8 hPa | - | - | - | - |
| 1778079784 | 18.89° C | 48% | 971.4 hPa | - | - | - | - |
| 1778078884 | 18.89° C | 48% | 971.2 hPa | - | - | - | - |
| 1778077084 | 20° C | 46% | 971.4 hPa | - | - | - | - |
| 1778065382 | 21.11° C | 41% | 972.1 hPa | - | - | - | - |
| 1778063582 | 20.56° C | 44% | 972.3 hPa | - | - | - | - |
| 1778062682 | 21.11° C | 41% | 972.4 hPa | - | - | - | - |
| 1778061782 | 21.67° C | 37% | 972.4 hPa | - | - | - | - |
| 1778060882 | 22.78° C | 34% | 972.3 hPa | - | - | - | - |
| 1778055481 | 28.33° C | 26% | 972.3 hPa | - | - | - | - |
| 1778054581 | 28.89° C | 28% | 972.3 hPa | - | - | - | - |
| 1778053681 | 29.44° C | 27% | 972.5 hPa | - | - | - | - |
| 1778052781 | 25° C | 35% | 972.8 hPa | - | - | - | - |
| 1778051881 | 22.78° C | 40% | 972.7 hPa | - | - | - | - |
| 1778050981 | 22.22° C | 39% | 972.7 hPa | - | - | - | - |
* Rain since midnight (hover to see other rain measurements)
** Current wind speed in m/s (hover to see current wind gust speed)